Time;durP1;ratioP1;P1;durP2;ratioP2;P2;SDS_P1;SDS_P2;PMS_P1;PMS_P2;Temp;Humidity;BMP_temperature;BMP_pressure;BME280_temperature;BME280_humidity;BME280_pressure;Samples;Min_cycle;Max_cycle;Signal;HPM_P1;HPM_P2
2024/01/02 00:00:19;;;;;;;4.80;0.93;;;8.00;82.70;;;;;;5069779;28;20028;-91
2024/01/02 00:02:45;;;;;;;2.00;0.85;;;8.10;83.20;;;;;;5072010;28;20029;-90
2024/01/02 00:05:10;;;;;;;2.97;1.50;;;8.10;82.50;;;;;;5071755;28;20045;-92
2024/01/02 00:07:36;;;;;;;5.38;1.20;;;8.10;82.40;;;;;;5066880;28;20034;-90
2024/01/02 00:10:02;;;;;;;1.80;1.35;;;8.10;82.50;;;;;;5075700;28;20538;-90
2024/01/02 00:12:28;;;;;;;3.65;2.20;;;8.10;82.30;;;;;;5064405;28;20029;-90
2024/01/02 00:14:55;;;;;;;3.05;1.35;;;8.20;81.90;;;;;;5071978;28;20099;-90
2024/01/02 00:17:20;;;;;;;2.17;1.08;;;8.20;81.80;;;;;;5077853;28;20047;-89
2024/01/02 00:19:46;;;;;;;5.38;1.48;;;8.20;81.30;;;;;;5073937;28;20016;-91
2024/01/02 00:22:11;;;;;;;2.10;0.90;;;8.30;81.70;;;;;;5077060;28;20050;-91
2024/01/02 00:24:37;;;;;;;1.33;0.88;;;8.30;81.60;;;;;;5076790;28;20040;-90
2024/01/02 00:27:03;;;;;;;2.40;0.80;;;8.20;81.50;;;;;;5067637;28;20035;-90
2024/01/02 00:29:29;;;;;;;1.48;0.80;;;8.30;81.10;;;;;;5072975;28;20033;-90
2024/01/02 00:31:54;;;;;;;3.72;2.58;;;8.30;81.10;;;;;;5075975;28;20520;-91
2024/01/02 00:34:20;;;;;;;2.00;1.02;;;8.20;81.00;;;;;;5064822;28;20033;-91
2024/01/02 00:36:46;;;;;;;1.20;1.10;;;8.30;81.20;;;;;;5068508;28;20028;-90
2024/01/02 00:39:11;;;;;;;1.85;1.13;;;8.30;81.10;;;;;;5075024;28;20047;-90
2024/01/02 00:41:37;;;;;;;2.42;1.05;;;8.30;81.20;;;;;;5070357;28;20462;-91
2024/01/02 00:44:03;;;;;;;1.27;1.17;;;8.30;80.60;;;;;;5067388;28;20040;-91
2024/01/02 00:46:29;;;;;;;2.25;1.02;;;8.30;81.10;;;;;;5089785;28;20032;-91
2024/01/02 00:48:55;;;;;;;1.33;0.98;;;8.30;80.20;;;;;;5069092;28;20213;-91
2024/01/02 00:51:21;;;;;;;1.58;1.33;;;8.40;80.40;;;;;;5072667;28;20056;-91
2024/01/02 00:53:46;;;;;;;1.52;1.10;;;8.40;80.00;;;;;;5081613;28;20047;-91
2024/01/02 00:56:12;;;;;;;1.27;0.93;;;8.40;80.50;;;;;;5083615;28;20013;-91
2024/01/02 00:58:38;;;;;;;1.63;1.52;;;8.40;80.30;;;;;;5082678;28;20033;-91
2024/01/02 01:01:03;;;;;;;1.50;1.40;;;8.40;80.40;;;;;;5083185;28;20054;-92
2024/01/02 01:03:29;;;;;;;1.27;1.00;;;8.50;79.40;;;;;;5068281;28;20646;-90
2024/01/02 01:05:55;;;;;;;1.13;0.95;;;8.50;80.40;;;;;;5075677;28;20051;-91
2024/01/02 01:08:21;;;;;;;1.27;1.05;;;8.50;80.10;;;;;;5061454;28;20033;-91
2024/01/02 01:10:46;;;;;;;2.30;1.00;;;8.50;80.70;;;;;;5055054;28;20047;-90
2024/01/02 01:13:12;;;;;;;1.67;0.95;;;8.40;81.70;;;;;;5064553;28;20662;-90
2024/01/02 01:15:39;;;;;;;1.95;1.13;;;8.40;81.40;;;;;;5066476;28;20033;-91
2024/01/02 01:18:05;;;;;;;0.70;0.70;;;8.40;81.90;;;;;;5066812;28;20044;-91
2024/01/02 01:20:30;;;;;;;1.85;0.98;;;8.40;82.30;;;;;;5082152;28;20005;-91
2024/01/02 01:22:56;;;;;;;4.40;2.50;;;8.40;82.90;;;;;;5095728;28;20012;-91
2024/01/02 01:25:22;;;;;;;4.20;1.17;;;8.40;83.90;;;;;;5087132;28;20044;-90
2024/01/02 01:27:47;;;;;;;1.70;1.20;;;8.40;84.70;;;;;;5080184;28;20033;-91
2024/01/02 01:30:13;;;;;;;2.22;1.35;;;8.40;84.20;;;;;;5075580;28;20028;-91
2024/01/02 01:32:39;;;;;;;1.15;1.02;;;8.30;85.50;;;;;;5075246;28;20021;-91
2024/01/02 01:35:05;;;;;;;1.65;0.90;;;8.20;86.30;;;;;;5075501;28;20047;-91
2024/01/02 01:37:34;;;;;;;1.02;0.98;;;8.20;86.50;;;;;;5075014;28;20021;-91
2024/01/02 01:40:00;;;;;;;1.67;1.05;;;8.10;89.00;;;;;;5067215;28;20017;-91
2024/01/02 01:42:26;;;;;;;1.17;0.73;;;8.20;88.30;;;;;;5067010;28;20031;-92
2024/01/02 01:44:51;;;;;;;1.17;0.90;;;8.10;88.90;;;;;;5065848;28;20024;-91
2024/01/02 01:47:17;;;;;;;2.67;1.77;;;8.10;89.50;;;;;;5061705;28;20222;-91
2024/01/02 01:49:43;;;;;;;1.35;0.88;;;8.10;89.70;;;;;;5070578;28;20909;-92
2024/01/02 01:52:11;;;;;;;0.77;0.75;;;8.00;90.70;;;;;;5072873;28;20032;-91
2024/01/02 01:54:37;;;;;;;1.42;1.33;;;8.00;90.70;;;;;;5079725;28;20072;-91
2024/01/02 01:57:04;;;;;;;1.55;1.30;;;7.90;91.00;;;;;;5072122;28;20029;-91
2024/01/02 01:59:31;;;;;;;1.23;0.77;;;7.90;92.10;;;;;;5077760;28;20043;-91
2024/01/02 02:01:57;;;;;;;4.50;1.92;;;7.90;91.70;;;;;;5079360;28;20042;-91
2024/01/02 02:04:25;;;;;;;1.95;0.75;;;7.90;93.20;;;;;;5068007;28;20029;-91
2024/01/02 02:06:52;;;;;;;1.35;1.25;;;7.90;94.20;;;;;;5065485;28;20021;-91
2024/01/02 02:09:18;;;;;;;3.65;1.52;;;7.80;95.20;;;;;;5071954;28;20111;-90
2024/01/02 02:11:44;;;;;;;1.00;0.90;;;7.80;95.20;;;;;;5068997;28;20044;-90
2024/01/02 02:14:11;;;;;;;2.58;1.17;;;7.80;96.20;;;;;;5076469;28;20027;-91
2024/01/02 02:16:40;;;;;;;1.20;1.10;;;7.70;97.20;;;;;;5071408;28;20115;-91
2024/01/02 02:19:06;;;;;;;1.70;0.85;;;7.70;97.80;;;;;;5079009;28;20024;-93
2024/01/02 02:21:33;;;;;;;1.42;1.00;;;7.60;99.10;;;;;;5076226;28;20024;-91
2024/01/02 02:23:59;;;;;;;1.67;1.02;;;7.60;99.90;;;;;;5078625;28;20041;-91
2024/01/02 02:26:25;;;;;;;1.98;0.93;;;7.50;99.90;;;;;;5101292;28;20025;-91
2024/01/02 02:28:51;;;;;;;4.32;1.38;;;7.50;99.90;;;;;;5077817;28;20052;-92
2024/01/02 02:31:18;;;;;;;1.17;1.05;;;7.50;99.90;;;;;;5078131;28;20029;-92
2024/01/02 02:33:43;;;;;;;1.55;0.98;;;7.50;99.90;;;;;;5069085;28;20067;-92
2024/01/02 02:36:09;;;;;;;2.03;0.88;;;7.40;99.90;;;;;;5069674;28;20021;-92
2024/01/02 02:38:35;;;;;;;1.48;1.13;;;7.40;99.90;;;;;;5079736;28;20025;-92
2024/01/02 02:41:00;;;;;;;2.25;1.00;;;7.40;99.90;;;;;;5078119;28;20078;-92
2024/01/02 02:43:26;;;;;;;1.15;0.70;;;7.40;99.90;;;;;;5078005;28;20422;-92
2024/01/02 02:45:52;;;;;;;2.42;1.17;;;7.40;99.90;;;;;;5076069;28;20021;-92
2024/01/02 02:48:17;;;;;;;1.25;0.88;;;7.40;99.90;;;;;;5072301;28;20024;-91
2024/01/02 02:50:43;;;;;;;1.23;0.85;;;7.30;99.90;;;;;;5068092;28;20027;-91
2024/01/02 02:53:09;;;;;;;1.17;1.02;;;7.30;99.90;;;;;;5075362;28;20082;-92
2024/01/02 02:55:35;;;;;;;1.67;1.02;;;7.20;99.90;;;;;;5073653;28;20106;-92
2024/01/02 02:58:00;;;;;;;1.77;1.33;;;7.20;99.90;;;;;;5068503;28;20036;-92
2024/01/02 03:00:26;;;;;;;2.75;1.27;;;7.20;99.90;;;;;;5062904;28;20104;-92
2024/01/02 03:02:52;;;;;;;5.53;1.30;;;7.10;99.90;;;;;;5067253;28;20050;-91
2024/01/02 03:05:17;;;;;;;2.92;0.90;;;7.10;99.90;;;;;;5075415;28;20069;-91
2024/01/02 03:07:43;;;;;;;1.95;1.17;;;7.10;99.90;;;;;;5073532;28;20033;-92
2024/01/02 03:10:14;;;;;;;1.40;1.23;;;7.10;99.90;;;;;;5069628;28;20042;-92
2024/01/02 03:12:39;;;;;;;2.10;0.82;;;7.10;99.90;;;;;;5078700;28;20029;-91
2024/01/02 03:15:06;;;;;;;2.55;1.35;;;7.10;99.90;;;;;;5078204;28;20100;-92
2024/01/02 03:17:32;;;;;;;1.23;0.60;;;7.10;99.90;;;;;;5077710;28;20123;-91
2024/01/02 03:19:57;;;;;;;1.65;1.27;;;7.10;99.90;;;;;;5077774;28;20020;-90
2024/01/02 03:22:23;;;;;;;1.25;1.00;;;7.00;99.90;;;;;;5079566;28;20025;-91
2024/01/02 03:24:49;;;;;;;1.27;1.10;;;7.00;99.90;;;;;;5079405;28;20530;-91
2024/01/02 03:27:14;;;;;;;1.80;1.02;;;6.90;99.90;;;;;;5078292;28;20048;-91
2024/01/02 03:29:40;;;;;;;1.50;1.40;;;7.00;99.90;;;;;;5077838;28;20031;-91
2024/01/02 03:32:06;;;;;;;1.13;1.00;;;6.90;99.90;;;;;;5079143;28;20040;-91
2024/01/02 03:34:31;;;;;;;1.80;0.90;;;7.00;99.90;;;;;;5077806;28;20017;-91
2024/01/02 03:36:57;;;;;;;1.88;1.20;;;7.00;99.90;;;;;;5076732;28;20498;-91
2024/01/02 03:39:23;;;;;;;1.20;1.10;;;6.90;99.90;;;;;;5077287;28;20044;-91
2024/01/02 03:41:49;;;;;;;1.33;1.08;;;6.90;99.90;;;;;;5072385;28;20032;-92
2024/01/02 03:44:15;;;;;;;1.52;1.05;;;6.90;99.90;;;;;;5076065;28;20027;-91
2024/01/02 03:46:41;;;;;;;1.13;0.77;;;7.00;99.90;;;;;;5075480;28;20017;-91
2024/01/02 03:49:07;;;;;;;3.33;1.52;;;7.00;99.90;;;;;;5073332;28;20077;-93
2024/01/02 03:51:32;;;;;;;1.08;1.08;;;6.90;99.90;;;;;;5074561;28;20028;-91
2024/01/02 03:53:58;;;;;;;1.48;0.80;;;7.00;99.90;;;;;;5077786;28;20052;-91
2024/01/02 03:56:23;;;;;;;1.35;0.93;;;7.10;99.90;;;;;;5069417;28;20021;-91
2024/01/02 03:58:49;;;;;;;0.70;0.70;;;7.10;99.90;;;;;;5071288;28;20049;-92
2024/01/02 04:01:15;;;;;;;0.70;0.70;;;7.10;99.90;;;;;;5086015;28;20085;-90
2024/01/02 04:03:40;;;;;;;1.40;1.30;;;7.10;99.90;;;;;;5094811;28;20062;-92
2024/01/02 04:06:06;;;;;;;1.45;1.38;;;7.10;99.90;;;;;;5076262;28;20487;-91
2024/01/02 04:08:32;;;;;;;5.40;2.88;;;7.10;99.90;;;;;;5077472;28;20025;-91
2024/01/02 04:10:58;;;;;;;1.38;1.23;;;7.10;99.90;;;;;;5077729;28;20033;-90
2024/01/02 04:13:23;;;;;;;1.10;0.90;;;7.20;99.90;;;;;;5074730;28;20024;-91
2024/01/02 04:15:49;;;;;;;2.00;1.05;;;7.20;99.90;;;;;;5077395;28;20029;-89
2024/01/02 04:18:15;;;;;;;1.20;0.82;;;7.20;99.90;;;;;;5077101;28;20042;-90
2024/01/02 04:20:41;;;;;;;1.33;0.77;;;7.20;99.90;;;;;;5077085;28;20104;-93
2024/01/02 04:23:07;;;;;;;0.55;0.55;;;7.20;99.90;;;;;;5077621;28;20413;-91
2024/01/02 04:25:32;;;;;;;0.70;0.70;;;7.20;99.90;;;;;;5075746;28;20031;-90
2024/01/02 04:27:59;;;;;;;0.95;0.88;;;7.10;99.90;;;;;;5074566;28;20024;-91
2024/01/02 04:30:25;;;;;;;2.13;1.35;;;7.20;99.90;;;;;;5074366;28;20029;-91
2024/01/02 04:32:51;;;;;;;1.10;1.10;;;7.20;99.90;;;;;;5077352;28;20082;-90
2024/01/02 04:35:17;;;;;;;0.88;0.85;;;7.30;99.90;;;;;;5074901;28;20090;-91
2024/01/02 04:37:43;;;;;;;0.77;0.77;;;7.30;99.90;;;;;;5073643;28;20016;-91
2024/01/02 04:40:10;;;;;;;1.05;0.90;;;7.30;99.90;;;;;;5074926;28;20482;-90
2024/01/02 04:42:37;;;;;;;0.82;0.82;;;7.30;99.90;;;;;;5074907;28;20021;-91
2024/01/02 04:45:03;;;;;;;0.80;0.80;;;7.30;99.90;;;;;;5071345;28;20688;-90
2024/01/02 04:47:29;;;;;;;1.02;0.50;;;7.30;99.90;;;;;;5070104;28;20058;-90
2024/01/02 04:49:55;;;;;;;1.05;0.82;;;7.40;99.90;;;;;;5075400;28;20056;-92
2024/01/02 04:52:21;;;;;;;0.70;0.70;;;7.30;99.90;;;;;;5069570;28;20543;-91
2024/01/02 04:54:48;;;;;;;1.10;1.10;;;7.30;99.90;;;;;;5063850;28;20017;-91
2024/01/02 04:57:14;;;;;;;0.47;0.47;;;7.40;99.90;;;;;;5058741;28;20067;-91
2024/01/02 04:59:40;;;;;;;0.70;0.70;;;7.30;99.90;;;;;;5072500;28;20025;-90
2024/01/02 05:02:05;;;;;;;1.10;0.93;;;7.30;99.90;;;;;;5073310;28;20103;-91
2024/01/02 05:04:31;;;;;;;0.70;0.70;;;7.30;99.90;;;;;;5068840;28;20028;-90
2024/01/02 05:06:57;;;;;;;1.15;1.15;;;7.40;99.90;;;;;;5075860;28;20040;-91
2024/01/02 05:09:22;;;;;;;0.95;0.95;;;7.30;99.90;;;;;;5075567;28;20066;-91
2024/01/02 05:11:48;;;;;;;0.95;0.95;;;7.30;99.90;;;;;;5075490;28;20060;-91
2024/01/02 05:14:17;;;;;;;0.80;0.80;;;7.30;99.90;;;;;;5075355;28;20028;-90
2024/01/02 05:16:43;;;;;;;1.35;1.25;;;7.40;99.90;;;;;;5075963;28;20617;-90
2024/01/02 05:19:09;;;;;;;1.20;1.20;;;7.40;99.90;;;;;;5074837;28;20021;-90
2024/01/02 05:21:34;;;;;;;0.85;0.85;;;7.30;99.90;;;;;;5074686;28;20528;-91
2024/01/02 05:24:00;;;;;;;0.60;0.60;;;7.30;99.90;;;;;;5076618;28;20052;-91
2024/01/02 05:26:25;;;;;;;1.35;0.95;;;7.30;99.90;;;;;;5080285;28;20060;-90
2024/01/02 05:28:51;;;;;;;0.70;0.70;;;7.40;99.90;;;;;;5079316;28;20059;-90
2024/01/02 05:31:17;;;;;;;0.80;0.80;;;7.40;99.90;;;;;;5068515;28;20110;-90
2024/01/02 05:33:42;;;;;;;1.08;0.60;;;7.40;99.90;;;;;;5069862;28;20034;-91
2024/01/02 05:36:08;;;;;;;0.95;0.95;;;7.40;99.90;;;;;;5070193;28;20564;-91
2024/01/02 05:38:34;;;;;;;1.23;1.13;;;7.40;99.90;;;;;;5076516;28;20025;-91
2024/01/02 05:40:59;;;;;;;0.90;0.90;;;7.50;99.90;;;;;;5078935;28;20024;-91
2024/01/02 05:43:25;;;;;;;1.48;1.15;;;7.50;99.90;;;;;;5077711;28;20028;-90
2024/01/02 05:45:51;;;;;;;0.95;0.95;;;7.50;99.90;;;;;;5077362;28;20021;-91
2024/01/02 05:48:16;;;;;;;1.50;1.45;;;7.50;99.90;;;;;;5073129;28;20032;-91
2024/01/02 05:50:42;;;;;;;1.13;1.13;;;7.60;99.90;;;;;;5058142;28;20025;-92
2024/01/02 05:53:11;;;;;;;0.50;0.50;;;7.50;99.90;;;;;;5076251;28;20025;-91
2024/01/02 05:55:36;;;;;;;0.45;0.40;;;7.60;99.90;;;;;;5078040;28;20047;-90
2024/01/02 05:58:02;;;;;;;0.70;0.70;;;7.60;99.90;;;;;;5067578;28;20021;-90
2024/01/02 06:00:28;;;;;;;1.75;1.65;;;7.50;99.90;;;;;;5071349;28;20031;-91
2024/01/02 06:02:55;;;;;;;1.10;1.10;;;7.60;99.90;;;;;;5073716;28;20096;-91
2024/01/02 06:05:21;;;;;;;0.93;0.88;;;7.60;99.90;;;;;;5069117;28;20029;-92
2024/01/02 06:07:47;;;;;;;1.67;0.60;;;7.60;99.90;;;;;;5079590;28;20060;-91
2024/01/02 06:10:13;;;;;;;0.95;0.70;;;7.60;99.90;;;;;;5078217;28;20027;-90
2024/01/02 06:12:38;;;;;;;1.60;0.50;;;7.60;99.90;;;;;;5079096;28;20070;-91
2024/01/02 06:15:05;;;;;;;0.55;0.50;;;7.60;99.90;;;;;;5078249;28;20104;-91
2024/01/02 06:17:31;;;;;;;0.52;0.52;;;7.70;99.90;;;;;;5075055;28;20056;-90
2024/01/02 06:19:56;;;;;;;2.25;0.52;;;7.70;99.90;;;;;;5078780;28;20021;-91
2024/01/02 06:22:22;;;;;;;0.77;0.77;;;7.80;99.90;;;;;;5079167;28;20025;-91
2024/01/02 06:24:48;;;;;;;0.88;0.88;;;7.70;99.90;;;;;;5076892;28;20028;-91
2024/01/02 06:27:14;;;;;;;0.90;0.73;;;7.70;99.90;;;;;;5078276;28;20096;-91
2024/01/02 06:29:39;;;;;;;1.02;0.98;;;7.70;99.90;;;;;;5076927;28;20078;-91
2024/01/02 06:32:06;;;;;;;1.20;1.20;;;7.80;99.90;;;;;;5073698;28;20028;-90
2024/01/02 06:34:31;;;;;;;0.55;0.50;;;7.80;99.90;;;;;;5062110;28;20076;-92
2024/01/02 06:36:57;;;;;;;0.93;0.93;;;7.80;99.90;;;;;;5094693;28;20032;-92
2024/01/02 06:39:23;;;;;;;1.17;1.08;;;7.80;99.90;;;;;;5086376;28;20093;-91
2024/01/02 06:41:49;;;;;;;1.08;1.08;;;7.90;99.90;;;;;;5090835;28;20029;-91
2024/01/02 06:44:15;;;;;;;0.55;0.55;;;7.90;99.90;;;;;;5078516;28;20112;-91
2024/01/02 06:46:41;;;;;;;0.60;0.60;;;7.90;99.90;;;;;;5068069;28;20088;-90
2024/01/02 06:49:09;;;;;;;0.77;0.77;;;7.90;99.90;;;;;;5059427;28;20033;-90
2024/01/02 06:51:34;;;;;;;1.27;1.15;;;7.90;99.90;;;;;;5062387;28;20035;-91
2024/01/02 06:54:00;;;;;;;1.55;0.50;;;7.90;99.90;;;;;;5071239;28;20382;-91
2024/01/02 06:56:26;;;;;;;1.85;1.75;;;7.90;99.90;;;;;;5077486;28;20095;-91
2024/01/02 06:58:51;;;;;;;2.00;1.02;;;7.90;99.90;;;;;;5063653;28;20104;-91
2024/01/02 07:01:17;;;;;;;1.15;1.05;;;7.90;99.90;;;;;;5077793;28;20024;-92
2024/01/02 07:03:43;;;;;;;0.82;0.80;;;7.90;99.90;;;;;;5076557;28;20074;-91
2024/01/02 07:06:09;;;;;;;0.85;0.77;;;7.90;99.90;;;;;;5078593;28;20024;-91
2024/01/02 07:08:36;;;;;;;1.65;0.82;;;7.90;99.90;;;;;;5079273;28;20090;-91
2024/01/02 07:11:02;;;;;;;0.88;0.85;;;7.90;99.90;;;;;;5074648;28;20028;-91
2024/01/02 07:13:28;;;;;;;0.93;0.93;;;7.90;99.90;;;;;;5079297;28;20108;-91
2024/01/02 07:15:54;;;;;;;0.75;0.73;;;7.90;99.90;;;;;;5069575;28;20044;-91
2024/01/02 07:18:19;;;;;;;0.95;0.95;;;7.90;99.90;;;;;;5078175;28;20151;-92
2024/01/02 07:20:45;;;;;;;0.93;0.93;;;7.90;99.90;;;;;;5076828;28;20100;-91
2024/01/02 07:23:10;;;;;;;0.93;0.75;;;7.90;99.90;;;;;;5077672;28;20055;-91
2024/01/02 07:25:36;;;;;;;0.60;0.52;;;7.90;99.90;;;;;;5074174;28;20031;-91
2024/01/02 07:28:02;;;;;;;2.13;0.73;;;7.90;99.90;;;;;;5075041;28;20020;-90
2024/01/02 07:30:28;;;;;;;1.02;1.00;;;7.90;99.90;;;;;;5076267;28;20024;-89
2024/01/02 07:32:53;;;;;;;0.85;0.50;;;8.00;99.90;;;;;;5077604;28;20034;-94
2024/01/02 07:35:19;;;;;;;0.60;0.60;;;8.00;99.90;;;;;;5083048;28;20120;-93
2024/01/02 07:37:46;;;;;;;0.77;0.40;;;7.90;99.90;;;;;;5085675;28;20024;-94
2024/01/02 07:40:13;;;;;;;0.65;0.57;;;8.00;99.90;;;;;;5085044;28;20025;-94
2024/01/02 07:42:39;;;;;;;0.70;0.65;;;7.90;99.90;;;;;;5068962;28;20100;-94
2024/01/02 07:45:11;;;;;;;0.98;0.98;;;7.90;99.90;;;;;;5071538;28;20605;-94
2024/01/02 07:47:38;;;;;;;1.23;0.80;;;7.90;99.90;;;;;;5109356;22;20422;-91
2024/01/02 07:50:04;;;;;;;1.40;0.57;;;7.90;99.90;;;;;;5092714;28;20016;-92
2024/01/02 07:52:32;;;;;;;1.40;0.70;;;7.90;99.90;;;;;;5090848;28;20035;-91
2024/01/02 07:54:57;;;;;;;1.10;0.77;;;7.90;99.90;;;;;;5088490;28;20017;-93
2024/01/02 07:57:49;;;;;;;2.05;0.57;;;8.00;99.90;;;;;;5089049;28;20042;-93
2024/01/02 08:00:16;;;;;;;0.82;0.50;;;8.00;99.90;;;;;;5089674;28;20046;-91
2024/01/02 08:02:42;;;;;;;1.55;0.95;;;7.90;99.90;;;;;;5090668;28;20120;-91
2024/01/02 08:05:11;;;;;;;1.20;1.17;;;7.90;99.90;;;;;;5090914;28;20028;-93
2024/01/02 08:07:37;;;;;;;0.73;0.73;;;7.90;99.90;;;;;;5090140;28;20553;-92
2024/01/02 08:10:06;;;;;;;1.70;0.70;;;7.90;99.90;;;;;;5087457;28;20029;-92
2024/01/02 08:12:32;;;;;;;1.13;0.80;;;7.90;99.90;;;;;;5085884;28;20026;-92
2024/01/02 08:14:58;;;;;;;1.15;0.80;;;7.90;99.90;;;;;;5088251;28;20084;-94
2024/01/02 08:17:26;;;;;;;1.30;1.25;;;7.90;99.90;;;;;;5084653;28;20017;-90
2024/01/02 08:19:55;;;;;;;1.13;1.02;;;7.90;99.90;;;;;;5089538;28;20009;-93
2024/01/02 08:22:24;;;;;;;1.30;1.30;;;7.90;99.90;;;;;;5087277;28;20131;-93
2024/01/02 08:24:50;;;;;;;1.77;0.70;;;7.90;99.90;;;;;;5072719;28;20493;-92
2024/01/02 08:27:15;;;;;;;0.95;0.88;;;8.00;99.90;;;;;;5066056;28;20040;-93
2024/01/02 08:29:41;;;;;;;1.35;0.77;;;8.00;99.90;;;;;;5078934;28;20021;-93
2024/01/02 08:32:07;;;;;;;1.67;1.58;;;8.00;99.90;;;;;;5077726;28;20029;-92
2024/01/02 08:34:32;;;;;;;2.47;2.28;;;8.00;99.90;;;;;;5085227;28;20021;-94
2024/01/02 08:36:58;;;;;;;0.82;0.75;;;7.90;99.90;;;;;;5070353;28;20033;-91
2024/01/02 08:39:24;;;;;;;0.88;0.80;;;8.00;99.90;;;;;;5085584;28;20048;-95
2024/01/02 08:41:50;;;;;;;1.23;1.20;;;8.00;99.90;;;;;;5087714;28;20008;-90
2024/01/02 08:44:15;;;;;;;0.77;0.77;;;8.00;99.90;;;;;;5077171;28;20025;-92
2024/01/02 08:46:41;;;;;;;1.05;1.05;;;8.00;99.90;;;;;;5071717;28;20098;-92
2024/01/02 08:49:08;;;;;;;1.08;1.08;;;8.10;99.90;;;;;;5082792;28;20398;-94
2024/01/02 08:51:34;;;;;;;1.15;1.05;;;8.10;99.90;;;;;;5072584;28;20036;-91
2024/01/02 08:54:02;;;;;;;1.27;1.17;;;8.10;99.90;;;;;;5082472;28;20032;-91
2024/01/02 08:56:28;;;;;;;0.73;0.73;;;8.10;99.90;;;;;;5084813;28;20052;-92
2024/01/02 08:58:53;;;;;;;0.70;0.60;;;8.10;99.90;;;;;;5083664;28;20088;-93
2024/01/02 09:01:19;;;;;;;1.58;1.00;;;8.20;99.90;;;;;;5076534;28;20025;-94
2024/01/02 09:03:45;;;;;;;0.70;0.70;;;8.20;99.90;;;;;;5083856;28;20071;-90
2024/01/02 09:06:10;;;;;;;0.80;0.80;;;8.20;99.90;;;;;;5084761;28;20025;-90
2024/01/02 09:08:36;;;;;;;1.92;0.95;;;8.30;99.90;;;;;;5068174;28;20021;-91
2024/01/02 09:11:02;;;;;;;0.68;0.68;;;8.20;99.90;;;;;;5070566;28;20025;-91
2024/01/02 09:13:28;;;;;;;1.80;0.85;;;8.20;99.90;;;;;;5077702;28;20028;-92
2024/01/02 09:15:53;;;;;;;2.35;1.05;;;8.20;99.90;;;;;;5074307;28;20509;-91
2024/01/02 09:18:22;;;;;;;1.55;1.15;;;8.20;99.90;;;;;;5071904;28;20024;-91
2024/01/02 09:20:48;;;;;;;2.00;1.15;;;8.20;99.90;;;;;;5065335;28;20017;-92
2024/01/02 09:23:13;;;;;;;0.75;0.70;;;8.20;99.90;;;;;;5086662;28;20051;-92
2024/01/02 09:25:44;;;;;;;0.55;0.55;;;8.20;99.90;;;;;;5086786;28;20025;-93
2024/01/02 09:28:12;;;;;;;0.70;0.63;;;8.30;99.90;;;;;;5078765;28;20088;-94
2024/01/02 09:30:43;;;;;;;1.20;0.98;;;8.30;99.90;;;;;;5087112;28;20025;-92
2024/01/02 09:33:12;;;;;;;0.82;0.60;;;8.30;99.90;;;;;;5078367;28;20037;-94
2024/01/02 09:35:38;;;;;;;1.42;0.65;;;8.30;99.90;;;;;;5086770;28;20021;-93
2024/01/02 09:38:07;;;;;;;1.02;1.00;;;8.30;99.90;;;;;;5087331;28;20416;-92
2024/01/02 09:40:57;;;;;;;1.88;0.73;;;8.40;99.90;;;;;;5087911;28;20021;-94
2024/01/02 09:44:03;;;;;;;1.33;1.23;;;8.30;99.90;;;;;;5080988;28;20099;-91
2024/01/02 09:46:36;;;;;;;;;;;8.30;99.90;;;;;;5075576;28;20048;-92
2024/01/02 09:49:19;;;;;;;1.67;1.10;;;8.40;99.90;;;;;;5071532;28;19908;-91
2024/01/02 09:52:03;;;;;;;2.13;2.03;;;8.30;99.90;;;;;;5076207;28;20032;-93
2024/01/02 09:54:40;;;;;;;1.25;0.85;;;8.30;99.90;;;;;;5078958;28;20025;-91
2024/01/02 09:57:18;;;;;;;0.70;0.68;;;8.40;99.90;;;;;;5077838;28;20013;-91
2024/01/02 09:59:49;;;;;;;1.00;1.00;;;8.40;99.90;;;;;;5082540;28;20016;-91
2024/01/02 10:02:51;;;;;;;0.95;0.77;;;8.40;99.90;;;;;;5071102;28;20085;-90
2024/01/02 10:05:27;;;;;;;2.30;0.93;;;8.40;99.90;;;;;;5077563;28;20513;-92
2024/01/02 10:07:52;;;;;;;1.67;0.95;;;8.40;99.90;;;;;;5082233;28;20085;-91
2024/01/02 10:10:33;;;;;;;2.08;1.90;;;8.40;99.90;;;;;;5076373;28;20036;-93
2024/01/02 10:13:13;;;;;;;0.93;0.93;;;8.40;99.90;;;;;;5091585;28;20040;-91
2024/01/02 10:15:57;;;;;;;;;;;8.40;99.90;;;;;;5084310;28;20029;-91
2024/01/02 10:18:55;;;;;;;0.40;0.40;;;8.40;99.90;;;;;;5086297;28;20351;-92
2024/01/02 10:21:21;;;;;;;1.42;1.33;;;8.40;99.90;;;;;;5061269;28;20037;-91
2024/01/02 10:23:50;;;;;;;1.02;1.00;;;8.40;99.90;;;;;;5072551;28;20028;-92
2024/01/02 10:26:21;;;;;;;1.13;0.90;;;8.40;99.90;;;;;;5073324;28;20029;-91
2024/01/02 10:28:49;;;;;;;1.10;1.10;;;8.50;99.90;;;;;;5084131;28;20016;-93
2024/01/02 10:31:30;;;;;;;;;;;8.50;99.90;;;;;;5090296;28;20135;-92
2024/01/02 10:34:10;;;;;;;1.10;1.00;;;8.50;99.90;;;;;;5091309;28;19975;-91
2024/01/02 10:36:45;;;;;;;1.23;1.10;;;8.50;99.90;;;;;;5094359;28;20021;-93
2024/01/02 10:39:37;;;;;;;1.00;0.85;;;8.50;99.90;;;;;;5085352;28;20031;-92
2024/01/02 10:42:25;;;;;;;0.93;0.80;;;8.60;99.90;;;;;;5075791;28;20035;-93
2024/01/02 10:45:10;;;;;;;0.95;0.85;;;8.60;99.90;;;;;;5089298;28;20047;-93
2024/01/02 10:47:57;;;;;;;1.30;0.77;;;8.50;99.90;;;;;;5074332;28;20025;-92
2024/01/02 10:50:27;;;;;;;;;;;8.70;99.90;;;;;;5086884;28;20021;-93
2024/01/02 10:53:30;;;;;;;1.60;0.85;;;8.70;99.90;;;;;;5089825;28;19915;-92
2024/01/02 10:56:22;;;;;;;1.63;1.48;;;8.70;99.90;;;;;;5087949;28;20021;-93
2024/01/02 10:59:06;;;;;;;1.48;0.50;;;8.70;99.90;;;;;;5086827;28;20016;-93
2024/01/02 11:01:35;;;;;;;0.80;0.80;;;8.70;99.90;;;;;;5082082;28;20461;-92
2024/01/02 11:04:24;;;;;;;0.98;0.98;;;8.70;99.90;;;;;;5085496;28;20025;-92
2024/01/02 11:06:56;;;;;;;1.83;1.10;;;8.80;99.90;;;;;;5084277;28;20021;-92
2024/01/02 11:09:47;;;;;;;1.17;1.08;;;8.80;99.90;;;;;;5078775;28;20028;-90
2024/01/02 11:12:14;;;;;;;1.10;1.00;;;8.80;99.90;;;;;;5084054;28;20039;-92
2024/01/02 11:14:41;;;;;;;;;;;8.80;99.90;;;;;;5084256;28;20494;-92
2024/01/02 11:17:07;;;;;;;1.27;1.10;;;8.80;99.90;;;;;;5083152;28;19912;-91
2024/01/02 11:20:06;;;;;;;2.42;2.22;;;8.90;99.90;;;;;;5069196;28;20096;-93
2024/01/02 11:22:43;;;;;;;1.60;1.50;;;8.90;99.90;;;;;;5072685;28;20041;-93
2024/01/02 11:25:14;;;;;;;0.85;0.85;;;8.90;99.90;;;;;;5063770;28;20494;-92
2024/01/02 11:27:43;;;;;;;3.85;2.88;;;8.90;99.90;;;;;;5083202;28;20040;-93
2024/01/02 11:30:12;;;;;;;0.85;0.80;;;9.00;99.90;;;;;;5076119;28;20032;-95
2024/01/02 11:32:56;;;;;;;1.67;1.58;;;9.00;99.90;;;;;;5077333;28;20021;-92
2024/01/02 11:35:22;;;;;;;2.40;0.95;;;9.00;99.90;;;;;;5082922;28;20085;-93
2024/01/02 11:38:07;;;;;;;1.95;1.33;;;9.00;99.90;;;;;;5087764;28;20471;-91
2024/01/02 11:41:09;;;;;;;2.15;2.05;;;9.00;99.90;;;;;;5080982;28;20021;-93
2024/01/02 11:43:51;;;;;;;0.80;0.80;;;9.00;99.90;;;;;;5072369;28;20054;-94
2024/01/02 11:46:17;;;;;;;1.05;0.98;;;9.10;99.90;;;;;;5069151;28;20044;-92
2024/01/02 11:49:13;;;;;;;2.03;1.30;;;9.10;99.90;;;;;;5077978;28;20020;-93
2024/01/02 11:51:51;;;;;;;1.25;1.15;;;9.10;99.90;;;;;;5072979;28;20044;-92
2024/01/02 11:54:55;;;;;;;2.30;2.20;;;9.10;99.90;;;;;;5075393;28;20039;-93
2024/01/02 11:57:53;;;;;;;0.70;0.70;;;9.10;99.90;;;;;;5076558;28;20082;-92
2024/01/02 12:00:51;;;;;;;3.28;3.17;;;9.10;99.90;;;;;;5070430;28;20033;-92
2024/01/02 12:03:26;;;;;;;2.08;1.98;;;9.10;99.90;;;;;;5073505;28;20033;-91
2024/01/02 12:06:03;;;;;;;1.92;1.30;;;9.10;99.90;;;;;;5075199;28;20100;-92
2024/01/02 12:08:38;;;;;;;1.05;0.90;;;9.10;99.90;;;;;;5069131;28;20029;-91
2024/01/02 12:11:08;;;;;;;1.48;1.38;;;9.10;99.90;;;;;;5072512;28;20029;-92
2024/01/02 12:14:09;;;;;;;2.03;0.70;;;9.10;99.90;;;;;;5075623;28;20028;-91
2024/01/02 12:16:55;;;;;;;1.60;1.10;;;9.10;99.90;;;;;;5077466;28;20514;-92
2024/01/02 12:19:26;;;;;;;1.77;1.65;;;9.20;99.90;;;;;;5079798;28;20039;-94
2024/01/02 12:21:55;;;;;;;2.50;1.50;;;9.10;99.90;;;;;;5076477;28;20039;-92
2024/01/02 12:24:28;;;;;;;1.15;0.98;;;9.10;99.90;;;;;;5069718;28;20059;-93
2024/01/02 12:27:03;;;;;;;2.22;2.13;;;9.10;99.90;;;;;;5079674;28;20084;-92
2024/01/02 12:29:48;;;;;;;0.90;0.90;;;9.10;99.90;;;;;;5078046;28;20446;-92
2024/01/02 12:32:35;;;;;;;1.67;1.58;;;9.10;99.90;;;;;;5078950;28;20025;-92
2024/01/02 12:35:24;;;;;;;1.02;1.02;;;9.10;99.90;;;;;;5075794;28;20048;-93
2024/01/02 12:38:16;;;;;;;1.52;1.27;;;9.10;99.90;;;;;;5077464;28;20111;-91
2024/01/02 12:40:47;;;;;;;3.85;1.92;;;9.10;99.90;;;;;;5080675;28;20544;-91
2024/01/02 12:43:19;;;;;;;3.17;1.25;;;9.10;99.90;;;;;;5078089;28;20028;-91
2024/01/02 12:45:51;;;;;;;1.08;0.98;;;9.10;99.90;;;;;;5075756;28;20021;-93
2024/01/02 12:48:23;;;;;;;3.33;3.13;;;9.10;99.90;;;;;;5074336;28;20049;-92
2024/01/02 12:50:54;;;;;;;2.95;2.85;;;9.20;99.90;;;;;;5077596;28;20031;-91
2024/01/02 12:53:24;;;;;;;1.92;1.83;;;9.20;99.90;;;;;;5070611;28;20098;-91
2024/01/02 12:55:57;;;;;;;0.50;0.47;;;9.10;99.90;;;;;;5077188;28;20093;-92
2024/01/02 12:58:25;;;;;;;1.20;1.10;;;9.20;99.90;;;;;;5074228;28;20028;-91
2024/01/02 13:00:51;;;;;;;1.05;0.95;;;9.10;99.90;;;;;;5055842;28;20035;-90
2024/01/02 13:03:17;;;;;;;2.88;2.35;;;9.10;99.90;;;;;;5055693;28;20020;-90
2024/01/02 13:05:43;;;;;;;2.47;2.35;;;9.20;99.90;;;;;;5058676;28;20679;-89
2024/01/02 13:08:19;;;;;;;0.90;0.80;;;9.10;99.90;;;;;;5054089;28;20107;-90